Time;durP1;ratioP1;P1;durP2;ratioP2;P2;SDS_P1;SDS_P2;PMS_P1;PMS_P2;Temp;Humidity;BMP_temperature;BMP_pressure;BME280_temperature;BME280_humidity;BME280_pressure;Samples;Min_cycle;Max_cycle;Signal;HPM_P1;HPM_P2
2022/06/17 00:01:12;;;;;;;1.42;1.33;;;;;;;;;;5014621;28;20570;-69
2022/06/17 00:03:39;;;;;;;6.43;1.83;;;;;;;;;;5014991;28;20064;-69
2022/06/17 00:06:05;;;;;;;3.70;1.95;;;;;;;;;;5014872;28;20081;-69
2022/06/17 00:08:36;;;;;;;2.13;1.92;;;;;;;;;;5013495;28;20496;-68
2022/06/17 00:11:05;;;;;;;2.47;1.73;;;;;;;;;;4997572;28;20041;-68
2022/06/17 00:13:32;;;;;;;2.80;1.58;;;;;;;;;;5013356;28;20058;-68
2022/06/17 00:15:58;;;;;;;2.22;1.80;;;;;;;;;;5014558;28;20057;-68
2022/06/17 00:18:25;;;;;;;2.53;1.70;;;;;;;;;;5014479;28;20061;-68
2022/06/17 00:20:52;;;;;;;2.25;2.05;;;;;;;;;;5014419;28;20046;-68
2022/06/17 00:23:20;;;;;;;4.20;1.90;;;;;;;;;;5014399;28;20054;-68
2022/06/17 00:25:47;;;;;;;4.75;1.55;;;;;;;;;;5014275;28;20046;-68
2022/06/17 00:28:17;;;;;;;2.40;1.70;;;;;;;;;;5014302;28;20049;-68
2022/06/17 00:30:45;;;;;;;2.50;1.80;;;;;;;;;;5013962;28;20570;-69
2022/06/17 00:33:12;;;;;;;2.90;2.15;;;;;;;;;;5014171;28;20470;-69
2022/06/17 00:35:47;;;;;;;2.97;1.80;;;;;;;;;;5014192;28;20459;-68
2022/06/17 00:38:21;;;;;;;2.47;1.67;;;;;;;;;;4997713;28;20049;-68
2022/06/17 00:40:48;;;;;;;4.28;1.65;;;;;;;;;;4997183;28;20100;-68
2022/06/17 00:43:35;;;;;;;2.88;1.60;;;;;;;;;;5014195;28;20192;-68
2022/06/17 00:46:16;;;;;;;2.60;1.95;;;;;;;;;;5014085;28;20416;-69
2022/06/17 00:48:52;;;;;;;3.92;2.25;;;;;;;;;;5013933;28;20049;-69
2022/06/17 00:51:20;;;;;;;2.10;1.90;;;;;;;;;;4997468;28;20126;-68
2022/06/17 00:53:56;;;;;;;2.40;2.00;;;;;;;;;;4996419;28;20045;-68
2022/06/17 00:56:26;;;;;;;2.10;1.90;;;;;;;;;;4996964;28;20061;-68
2022/06/17 00:59:01;;;;;;;2.13;1.85;;;;;;;;;;5013960;28;20049;-69
2022/06/17 01:01:53;;;;;;;2.30;2.10;;;;;;;;;;5013794;28;20069;-69
2022/06/17 01:04:32;;;;;;;2.45;1.83;;;;;;;;;;5012485;28;20167;-68
2022/06/17 01:07:00;;;;;;;4.40;1.80;;;;;;;;;;5012485;28;20050;-68
2022/06/17 01:12:19;;;;;;;2.25;1.95;;;;;;;;;;5013496;28;20088;-68
2022/06/17 01:14:45;;;;;;;2.47;1.73;;;;;;;;;;5012178;28;20500;-68
2022/06/17 01:17:14;;;;;;;3.47;2.13;;;;;;;;;;5013414;28;20057;-68
2022/06/17 01:19:50;;;;;;;2.53;1.63;;;;;;;;;;5012164;28;20453;-68
2022/06/17 01:22:26;;;;;;;3.45;1.85;;;;;;;;;;5013241;28;20673;-68
2022/06/17 01:25:15;;;;;;;2.28;1.90;;;;;;;;;;5013521;28;20056;-68
2022/06/17 01:28:02;;;;;;;2.03;1.83;;;;;;;;;;5012156;28;20046;-68
2022/06/17 01:30:41;;;;;;;2.10;1.83;;;;;;;;;;5011770;28;20045;-69
2022/06/17 01:33:38;;;;;;;4.00;2.17;;;;;;;;;;5011892;28;20113;-68
2022/06/17 01:36:10;;;;;;;2.45;2.10;;;;;;;;;;4992216;28;20468;-68
2022/06/17 01:38:38;;;;;;;2.38;1.90;;;;;;;;;;5012840;28;20050;-69
2022/06/17 01:41:05;;;;;;;2.75;2.03;;;;;;;;;;4995776;28;20496;-68
2022/06/17 01:43:51;;;;;;;3.05;2.30;;;;;;;;;;5013024;28;20049;-68
2022/06/17 01:46:39;;;;;;;3.92;1.95;;;;;;;;;;5012849;28;20053;-68
2022/06/17 01:49:18;;;;;;;2.75;2.10;;;;;;;;;;5012676;28;20120;-68
2022/06/17 01:52:14;;;;;;;2.40;2.20;;;;;;;;;;4995757;28;20501;-68
2022/06/17 01:55:18;;;;;;;2.72;2.30;;;;;;;;;;5010854;28;20050;-68
2022/06/17 01:57:50;;;;;;;2.42;2.00;;;;;;;;;;5011618;28;20054;-68
2022/06/17 02:00:23;;;;;;;2.67;1.80;;;;;;;;;;5011369;28;20100;-68
2022/06/17 02:02:56;;;;;;;2.75;2.30;;;;;;;;;;5011410;28;20057;-68
2022/06/17 02:05:23;;;;;;;3.33;2.00;;;;;;;;;;4995283;28;20057;-68
2022/06/17 02:07:53;;;;;;;3.05;2.10;;;;;;;;;;4995228;28;20503;-68
2022/06/17 02:10:21;;;;;;;4.05;2.15;;;;;;;;;;4995420;28;20108;-68
2022/06/17 02:12:48;;;;;;;1.90;1.80;;;;;;;;;;4995146;28;20475;-68
2022/06/17 02:15:15;;;;;;;2.80;2.17;;;;;;;;;;4994678;28;20050;-68
2022/06/17 02:17:43;;;;;;;2.80;2.08;;;;;;;;;;5010878;28;20061;-69
2022/06/17 02:20:10;;;;;;;5.72;3.05;;;;;;;;;;5010968;28;20045;-68
2022/06/17 02:22:37;;;;;;;3.35;2.45;;;;;;;;;;5010994;28;20417;-68
2022/06/17 02:25:07;;;;;;;3.10;2.60;;;;;;;;;;5012113;28;20053;-68
2022/06/17 02:27:34;;;;;;;1.95;1.85;;;;;;;;;;5011206;28;20046;-68
2022/06/17 02:30:03;;;;;;;3.80;2.30;;;;;;;;;;5012002;28;20761;-68
2022/06/17 02:32:30;;;;;;;4.53;2.25;;;;;;;;;;5010770;28;20050;-68
2022/06/17 02:35:05;;;;;;;6.03;3.92;;;;;;;;;;5010912;28;20054;-68
2022/06/17 02:37:32;;;;;;;3.70;2.63;;;;;;;;;;5012467;28;20394;-68
2022/06/17 02:40:02;;;;;;;3.60;2.42;;;;;;;;;;5011915;28;20085;-69
2022/06/17 02:42:33;;;;;;;5.18;2.28;;;;;;;;;;5010683;28;20100;-69
2022/06/17 02:45:04;;;;;;;5.85;2.88;;;;;;;;;;4994952;28;20061;-68
2022/06/17 02:47:31;;;;;;;3.63;2.55;;;;;;;;;;4995003;28;20112;-68
2022/06/17 02:49:58;;;;;;;4.65;2.28;;;;;;;;;;5011919;28;20045;-68
2022/06/17 02:52:35;;;;;;;3.53;2.25;;;;;;;;;;5011858;28;20056;-68
2022/06/17 02:55:12;;;;;;;5.00;2.55;;;;;;;;;;5011858;28;20049;-68
2022/06/17 02:57:40;;;;;;;3.83;2.40;;;;;;;;;;5010937;28;20054;-68
2022/06/17 03:00:15;;;;;;;6.80;2.88;;;;;;;;;;5011954;28;20054;-68
2022/06/17 03:02:45;;;;;;;4.60;2.83;;;;;;;;;;4994469;28;20137;-68
2022/06/17 03:05:27;;;;;;;3.53;2.63;;;;;;;;;;5010702;28;20467;-68
2022/06/17 03:07:56;;;;;;;9.65;3.90;;;;;;;;;;5011986;28;20050;-69
2022/06/17 03:10:32;;;;;;;6.25;3.05;;;;;;;;;;5011604;28;20053;-70
2022/06/17 03:13:04;;;;;;;2.92;2.58;;;;;;;;;;5010355;28;20104;-70
2022/06/17 03:15:31;;;;;;;4.78;2.70;;;;;;;;;;4995092;28;20058;-70
2022/06/17 03:17:57;;;;;;;4.75;2.63;;;;;;;;;;5011918;28;20054;-70
2022/06/17 03:20:28;;;;;;;4.88;2.55;;;;;;;;;;5010394;28;20045;-71
2022/06/17 03:22:59;;;;;;;3.22;2.92;;;;;;;;;;4994664;28;20045;-71
2022/06/17 03:25:30;;;;;;;4.20;2.55;;;;;;;;;;4994811;28;20053;-71
2022/06/17 03:27:59;;;;;;;5.20;2.75;;;;;;;;;;4996699;28;20054;-71
2022/06/17 03:30:36;;;;;;;3.45;3.15;;;;;;;;;;4998460;28;20120;-70
2022/06/17 03:33:11;;;;;;;6.07;2.95;;;;;;;;;;4998271;28;20049;-70
2022/06/17 03:35:37;;;;;;;3.63;3.33;;;;;;;;;;5015419;28;20057;-70
2022/06/17 03:38:24;;;;;;;3.78;3.17;;;;;;;;;;4998086;28;20046;-70
2022/06/17 03:40:53;;;;;;;3.85;2.70;;;;;;;;;;5015178;28;20046;-71
2022/06/17 03:43:23;;;;;;;4.15;3.50;;;;;;;;;;5013938;28;20076;-70
2022/06/17 03:45:56;;;;;;;6.40;3.50;;;;;;;;;;5013855;28;20046;-71
2022/06/17 03:48:44;;;;;;;5.93;3.20;;;;;;;;;;4998392;28;20058;-71
2022/06/17 03:51:16;;;;;;;3.90;2.97;;;;;;;;;;4999012;28;20061;-72
2022/06/17 03:53:43;;;;;;;5.70;2.83;;;;;;;;;;5013317;28;20054;-70
2022/06/17 03:56:23;;;;;;;4.50;2.92;;;;;;;;;;4997568;28;20285;-71
2022/06/17 03:58:51;;;;;;;3.20;2.90;;;;;;;;;;4997718;28;20073;-71
2022/06/17 04:01:28;;;;;;;3.70;2.88;;;;;;;;;;4997272;28;20104;-71
2022/06/17 04:03:57;;;;;;;4.20;2.70;;;;;;;;;;4996255;28;20492;-71
2022/06/17 04:06:25;;;;;;;4.68;3.00;;;;;;;;;;5013540;28;20081;-71
2022/06/17 04:09:17;;;;;;;3.00;2.70;;;;;;;;;;5013466;28;20111;-71
2022/06/17 04:11:48;;;;;;;4.47;2.92;;;;;;;;;;5014411;28;20050;-71
2022/06/17 04:14:52;;;;;;;3.58;2.92;;;;;;;;;;5013438;28;20091;-71
2022/06/17 04:17:30;;;;;;;3.67;2.97;;;;;;;;;;5014556;28;20058;-71
2022/06/17 04:20:34;;;;;;;4.80;3.20;;;;;;;;;;5013664;28;20111;-71
2022/06/17 04:23:22;;;;;;;4.88;2.67;;;;;;;;;;5014275;28;20061;-71
2022/06/17 04:26:06;;;;;;;2.97;2.78;;;;;;;;;;5014414;28;20053;-71
2022/06/17 04:28:37;;;;;;;3.50;2.83;;;;;;;;;;5012956;28;20050;-71
2022/06/17 04:31:06;;;;;;;3.72;3.17;;;;;;;;;;4997611;28;20054;-71
2022/06/17 04:33:53;;;;;;;3.67;3.28;;;;;;;;;;4994633;28;20493;-70
2022/06/17 04:36:26;;;;;;;4.13;3.05;;;;;;;;;;4993653;28;20058;-71
2022/06/17 04:39:10;;;;;;;4.15;2.95;;;;;;;;;;5006817;28;20057;-71
2022/06/17 04:41:37;;;;;;;9.15;3.63;;;;;;;;;;4978395;28;20054;-71
2022/06/17 04:44:05;;;;;;;6.72;3.55;;;;;;;;;;4993195;28;20054;-71
2022/06/17 04:47:01;;;;;;;9.32;3.92;;;;;;;;;;4994597;28;20054;-70
2022/06/17 04:49:30;;;;;;;5.05;4.38;;;;;;;;;;4994480;28;20050;-71
2022/06/17 04:52:03;;;;;;;6.00;3.72;;;;;;;;;;4993027;28;20053;-71
2022/06/17 04:54:30;;;;;;;4.95;3.80;;;;;;;;;;4994189;28;20050;-71
2022/06/17 04:56:58;;;;;;;6.50;3.45;;;;;;;;;;4976832;28;20104;-71
2022/06/17 04:59:35;;;;;;;3.83;3.30;;;;;;;;;;4993206;28;20062;-71
2022/06/17 05:02:09;;;;;;;4.55;3.67;;;;;;;;;;5000033;28;20108;-71
2022/06/17 05:04:36;;;;;;;4.70;3.40;;;;;;;;;;5012492;28;20054;-71
2022/06/17 05:07:03;;;;;;;8.02;3.88;;;;;;;;;;5013485;28;20058;-71
2022/06/17 05:09:37;;;;;;;4.65;3.40;;;;;;;;;;5013735;28;20049;-71
2022/06/17 05:12:05;;;;;;;5.25;3.35;;;;;;;;;;5011821;28;20046;-71
2022/06/17 05:14:42;;;;;;;4.55;3.20;;;;;;;;;;5013364;28;20468;-71
2022/06/17 05:17:08;;;;;;;4.57;3.22;;;;;;;;;;5011220;28;20108;-68
2022/06/17 05:19:35;;;;;;;5.80;3.97;;;;;;;;;;5011482;28;20085;-69
2022/06/17 05:22:03;;;;;;;4.72;3.20;;;;;;;;;;5011602;28;20045;-68
2022/06/17 05:24:30;;;;;;;5.18;2.95;;;;;;;;;;5009947;28;20085;-69
2022/06/17 05:26:57;;;;;;;3.90;2.88;;;;;;;;;;5010354;28;20050;-69
2022/06/17 05:29:25;;;;;;;4.00;2.22;;;;;;;;;;5011517;28;20160;-69
2022/06/17 05:31:52;;;;;;;2.33;2.10;;;;;;;;;;5010934;28;20054;-69
2022/06/17 05:34:19;;;;;;;2.92;2.33;;;;;;;;;;5008094;28;20060;-69
2022/06/17 05:36:46;;;;;;;3.05;2.75;;;;;;;;;;4991725;28;20500;-68
2022/06/17 05:39:12;;;;;;;4.28;2.40;;;;;;;;;;4991643;28;20051;-68
2022/06/17 05:41:39;;;;;;;3.75;2.60;;;;;;;;;;4991503;28;20050;-68
2022/06/17 05:44:06;;;;;;;3.50;2.45;;;;;;;;;;4991038;28;20054;-68
2022/06/17 05:46:32;;;;;;;3.00;2.15;;;;;;;;;;4993266;28;20089;-68
2022/06/17 05:48:59;;;;;;;7.45;2.30;;;;;;;;;;5011065;28;20576;-68
2022/06/17 05:51:27;;;;;;;4.18;2.67;;;;;;;;;;5009859;28;20520;-68
2022/06/17 05:53:54;;;;;;;2.97;2.35;;;;;;;;;;5011061;28;20053;-68
2022/06/17 05:56:20;;;;;;;3.22;2.40;;;;;;;;;;5009910;28;20053;-68
2022/06/17 05:58:47;;;;;;;3.17;2.35;;;;;;;;;;5004846;28;20493;-68
2022/06/17 06:01:14;;;;;;;2.95;2.60;;;;;;;;;;4990750;28;20049;-68
2022/06/17 06:03:41;;;;;;;3.20;2.90;;;;;;;;;;4991579;28;20050;-68
2022/06/17 06:06:08;;;;;;;4.78;2.25;;;;;;;;;;4991163;28;20473;-68
2022/06/17 06:08:34;;;;;;;3.85;2.47;;;;;;;;;;4991399;28;20050;-68
2022/06/17 06:11:06;;;;;;;4.20;2.63;;;;;;;;;;5000783;28;20046;-68
2022/06/17 06:13:33;;;;;;;3.28;2.35;;;;;;;;;;4995682;28;20050;-68
2022/06/17 06:16:00;;;;;;;4.35;2.30;;;;;;;;;;4990931;28;20057;-68
2022/06/17 06:18:39;;;;;;;3.33;2.22;;;;;;;;;;4991209;28;20058;-66
2022/06/17 06:21:06;;;;;;;4.20;2.72;;;;;;;;;;5000233;28;20133;-66
2022/06/17 06:23:38;;;;;;;4.28;2.60;;;;;;;;;;5010270;28;20045;-68
2022/06/17 06:26:07;;;;;;;4.47;2.45;;;;;;;;;;4986658;28;20050;-68
2022/06/17 06:28:34;;;;;;;4.20;2.05;;;;;;;;;;5002566;28;20058;-69
2022/06/17 06:31:06;;;;;;;5.35;2.72;;;;;;;;;;4999312;28;20058;-72
2022/06/17 06:33:33;;;;;;;3.00;2.70;;;;;;;;;;4998349;28;20413;-74
2022/06/17 06:35:59;;;;;;;3.97;2.30;;;;;;;;;;4998028;28;20503;-74
2022/06/17 06:38:26;;;;;;;3.80;2.30;;;;;;;;;;5005299;28;20041;-71
2022/06/17 06:40:53;;;;;;;2.47;1.98;;;;;;;;;;4997830;28;20054;-73
2022/06/17 06:43:21;;;;;;;2.97;2.00;;;;;;;;;;4998487;28;20104;-67
2022/06/17 06:45:49;;;;;;;2.70;2.20;;;;;;;;;;5003647;28;20063;-66
2022/06/17 06:48:18;;;;;;;3.10;1.92;;;;;;;;;;5010811;28;20046;-67
2022/06/17 06:50:45;;;;;;;2.90;2.30;;;;;;;;;;5011629;28;20050;-66
2022/06/17 06:53:12;;;;;;;4.25;2.13;;;;;;;;;;5011475;28;20049;-66
2022/06/17 06:55:38;;;;;;;5.57;2.38;;;;;;;;;;5011668;28;20108;-66
2022/06/17 06:58:17;;;;;;;3.03;1.80;;;;;;;;;;5012005;28;20050;-66
2022/06/17 07:00:45;;;;;;;2.72;2.45;;;;;;;;;;5011636;28;20128;-66
2022/06/17 07:03:13;;;;;;;2.45;1.88;;;;;;;;;;5014469;28;20050;-66
2022/06/17 07:05:41;;;;;;;3.50;2.20;;;;;;;;;;5015887;28;20054;-66
2022/06/17 07:08:09;;;;;;;5.78;2.25;;;;;;;;;;4998540;28;20065;-66
2022/06/17 07:10:36;;;;;;;4.15;2.45;;;;;;;;;;5014352;28;20046;-66
2022/06/17 07:13:05;;;;;;;4.93;2.28;;;;;;;;;;5015604;28;20049;-66
2022/06/17 07:15:32;;;;;;;6.10;2.47;;;;;;;;;;5015834;28;20139;-66
2022/06/17 07:18:00;;;;;;;2.70;2.20;;;;;;;;;;5015647;28;20508;-66
2022/06/17 07:20:36;;;;;;;3.80;2.17;;;;;;;;;;5012190;28;20046;-66
2022/06/17 07:23:08;;;;;;;4.25;1.90;;;;;;;;;;4995809;28;20464;-66
2022/06/17 07:25:35;;;;;;;5.97;1.90;;;;;;;;;;4996024;28;20054;-66
2022/06/17 07:28:03;;;;;;;3.80;2.15;;;;;;;;;;4996015;28;20054;-66
2022/06/17 07:30:31;;;;;;;2.63;2.13;;;;;;;;;;4995828;28;20062;-66
2022/06/17 07:32:57;;;;;;;3.60;2.40;;;;;;;;;;4995493;28;20047;-66
2022/06/17 07:35:24;;;;;;;8.25;2.35;;;;;;;;;;4996024;28;20104;-66
2022/06/17 07:40:47;;;;;;;3.03;2.33;;;;;;;;;;4995750;28;20050;-66
2022/06/17 07:43:16;;;;;;;3.38;2.40;;;;;;;;;;4995521;28;20042;-66
2022/06/17 07:45:42;;;;;;;4.80;2.00;;;;;;;;;;5009704;28;20104;-66
2022/06/17 07:48:12;;;;;;;3.72;2.10;;;;;;;;;;5014872;28;20504;-67
2022/06/17 07:50:41;;;;;;;4.03;2.88;;;;;;;;;;5015100;28;20104;-66
2022/06/17 07:53:08;;;;;;;3.17;2.25;;;;;;;;;;5014753;28;20042;-67
2022/06/17 07:55:35;;;;;;;5.30;1.88;;;;;;;;;;5014837;28;20050;-67
2022/06/17 07:58:02;;;;;;;3.83;2.40;;;;;;;;;;5004404;28;20579;-75
2022/06/17 08:00:36;;;;;;;5.57;2.50;;;;;;;;;;4990739;28;20061;-68
2022/06/17 08:03:11;;;;;;;5.43;2.47;;;;;;;;;;5004049;28;20049;-70
2022/06/17 08:05:40;;;;;;;3.30;2.47;;;;;;;;;;5003356;28;20135;-66
2022/06/17 08:08:08;;;;;;;2.53;2.30;;;;;;;;;;4999149;28;20053;-66
2022/06/17 08:10:36;;;;;;;3.22;2.28;;;;;;;;;;4997747;28;20133;-66
2022/06/17 08:13:04;;;;;;;2.88;2.60;;;;;;;;;;4997255;28;20050;-67
2022/06/17 08:15:32;;;;;;;3.28;2.10;;;;;;;;;;4997428;28;20057;-68
2022/06/17 08:17:59;;;;;;;4.28;1.90;;;;;;;;;;5003498;28;20464;-68
2022/06/17 08:20:31;;;;;;;2.65;2.00;;;;;;;;;;4998589;28;20058;-67
2022/06/17 08:22:59;;;;;;;3.08;2.38;;;;;;;;;;5000772;28;20103;-67
2022/06/17 08:25:25;;;;;;;3.25;2.38;;;;;;;;;;5000835;28;20456;-68
2022/06/17 08:27:54;;;;;;;2.67;2.00;;;;;;;;;;5000331;28;20054;-67
2022/06/17 08:30:23;;;;;;;8.55;2.45;;;;;;;;;;5001325;28;20049;-67
2022/06/17 08:32:53;;;;;;;3.20;2.55;;;;;;;;;;4999029;28;20046;-68
2022/06/17 08:35:21;;;;;;;3.50;2.45;;;;;;;;;;5003677;28;20433;-67
2022/06/17 08:37:57;;;;;;;4.90;1.95;;;;;;;;;;4999767;28;20053;-68
2022/06/17 08:40:35;;;;;;;5.50;2.22;;;;;;;;;;5010157;28;20054;-68
2022/06/17 08:43:05;;;;;;;3.03;1.90;;;;;;;;;;5003435;28;20043;-67
2022/06/17 08:45:53;;;;;;;4.97;1.95;;;;;;;;;;4998507;28;20097;-68
2022/06/17 08:48:48;;;;;;;2.65;2.22;;;;;;;;;;4999143;28;20050;-67
2022/06/17 08:51:15;;;;;;;4.78;2.25;;;;;;;;;;4997755;28;20502;-69
2022/06/17 08:53:46;;;;;;;4.78;2.15;;;;;;;;;;5000873;28;20494;-66
2022/06/17 08:56:28;;;;;;;1.88;1.77;;;;;;;;;;5003713;28;20100;-67
2022/06/17 08:59:13;;;;;;;3.53;2.15;;;;;;;;;;5001094;28;20099;-67
2022/06/17 09:01:54;;;;;;;3.08;2.03;;;;;;;;;;5000331;28;20133;-66
2022/06/17 09:04:42;;;;;;;4.57;2.00;;;;;;;;;;4984323;28;20046;-67
2022/06/17 09:07:09;;;;;;;4.65;1.98;;;;;;;;;;5001122;28;20054;-67
2022/06/17 09:10:04;;;;;;;4.55;1.80;;;;;;;;;;4998908;28;20046;-67
2022/06/17 09:12:50;;;;;;;4.65;2.00;;;;;;;;;;4997236;28;20050;-67
2022/06/17 09:15:38;;;;;;;1.98;1.70;;;;;;;;;;5001066;28;20054;-67
2022/06/17 09:18:21;;;;;;;3.92;1.90;;;;;;;;;;4998633;28;20516;-67
2022/06/17 09:20:50;;;;;;;2.35;2.00;;;;;;;;;;4999262;28;20076;-67
2022/06/17 09:23:19;;;;;;;3.38;2.10;;;;;;;;;;4981679;28;20097;-67
2022/06/17 09:25:47;;;;;;;3.88;2.00;;;;;;;;;;5000659;28;20105;-68
2022/06/17 09:28:24;;;;;;;2.28;1.98;;;;;;;;;;5000231;28;20504;-68
2022/06/17 09:30:58;;;;;;;3.38;1.50;;;;;;;;;;5000144;28;20077;-74
2022/06/17 09:33:37;;;;;;;5.85;1.70;;;;;;;;;;5004068;28;20137;-68
2022/06/17 09:36:11;;;;;;;2.85;1.40;;;;;;;;;;4988681;28;20056;-65
2022/06/17 09:38:49;;;;;;;1.48;1.20;;;;;;;;;;4997125;28;20060;-65
2022/06/17 09:41:38;;;;;;;3.47;1.60;;;;;;;;;;5016653;28;20393;-71
2022/06/17 09:44:06;;;;;;;1.48;1.20;;;;;;;;;;4998860;28;20050;-73
2022/06/17 09:46:38;;;;;;;1.42;1.30;;;;;;;;;;5001162;28;20058;-72
2022/06/17 09:49:29;;;;;;;1.48;1.33;;;;;;;;;;4998227;28;20054;-72
2022/06/17 09:52:01;;;;;;;2.55;1.40;;;;;;;;;;4984686;28;20115;-69
2022/06/17 09:54:34;;;;;;;3.30;1.38;;;;;;;;;;5000686;28;20092;-69
2022/06/17 09:57:16;;;;;;;3.13;1.33;;;;;;;;;;4987883;28;20108;-69
2022/06/17 10:00:18;;;;;;;2.20;1.73;;;;;;;;;;5000870;28;20140;-66
2022/06/17 10:03:06;;;;;;;2.72;1.30;;;;;;;;;;4990702;28;20054;-76
2022/06/17 10:05:35;;;;;;;2.05;1.30;;;;;;;;;;4985352;28;20046;-74
2022/06/17 10:08:11;;;;;;;2.13;1.50;;;;;;;;;;5000341;28;20676;-75
2022/06/17 10:10:45;;;;;;;2.05;1.05;;;;;;;;;;4998086;28;20061;-74
2022/06/17 10:13:33;;;;;;;3.88;1.45;;;;;;;;;;5002468;28;20407;-70
2022/06/17 10:19:31;;;;;;;1.85;1.17;;;;;;;;;;4999837;28;20050;-71
2022/06/17 10:22:33;;;;;;;1.67;1.25;;;;;;;;;;5000690;28;20696;-70
2022/06/17 10:25:44;;;;;;;2.38;1.33;;;;;;;;;;4969042;28;20054;-72
2022/06/17 10:28:20;;;;;;;5.10;1.73;;;;;;;;;;4872642;29;20458;-72
2022/06/17 10:31:03;;;;;;;1.85;1.20;;;;;;;;;;4947580;28;20046;-74
2022/06/17 10:33:31;;;;;;;1.65;1.40;;;;;;;;;;4979007;28;20430;-72
2022/06/17 10:35:59;;;;;;;1.45;1.35;;;;;;;;;;4997304;28;20501;-71
2022/06/17 10:38:35;;;;;;;2.30;1.27;;;;;;;;;;4999868;28;20505;-70
2022/06/17 10:41:01;;;;;;;1.10;1.00;;;;;;;;;;4999915;28;20050;-70
2022/06/17 10:43:38;;;;;;;3.17;1.48;;;;;;;;;;5002507;28;20046;-66
2022/06/17 10:46:05;;;;;;;1.23;1.02;;;;;;;;;;5001710;28;20513;-68
2022/06/17 10:48:41;;;;;;;3.15;1.20;;;;;;;;;;4998104;28;20088;-65
2022/06/17 10:51:07;;;;;;;2.30;1.20;;;;;;;;;;4996891;28;20050;-67
2022/06/17 10:53:44;;;;;;;1.13;0.90;;;;;;;;;;4981952;28;20042;-68
2022/06/17 10:56:24;;;;;;;1.95;1.00;;;;;;;;;;4980945;28;20056;-68
2022/06/17 10:58:59;;;;;;;1.15;1.02;;;;;;;;;;4999488;28;20081;-68
2022/06/17 11:01:48;;;;;;;3.25;1.42;;;;;;;;;;4998887;28;20053;-70
2022/06/17 11:04:28;;;;;;;3.05;1.27;;;;;;;;;;4999223;28;20084;-70
2022/06/17 11:07:15;;;;;;;1.90;1.42;;;;;;;;;;4999125;28;20057;-68
2022/06/17 11:09:50;;;;;;;1.85;1.30;;;;;;;;;;4997124;28;20134;-72
2022/06/17 11:12:43;;;;;;;2.15;1.20;;;;;;;;;;5001466;28;20401;-67
2022/06/17 11:15:56;;;;;;;1.63;1.33;;;;;;;;;;5001168;28;20452;-67
2022/06/17 11:18:31;;;;;;;2.00;1.25;;;;;;;;;;4919560;29;20111;-67
2022/06/17 11:21:02;;;;;;;4.07;1.23;;;;;;;;;;5002112;28;20064;-67
2022/06/17 11:23:39;;;;;;;1.33;1.10;;;;;;;;;;4997999;28;20069;-67
2022/06/17 11:26:19;;;;;;;3.50;1.00;;;;;;;;;;4997229;28;20050;-66
2022/06/17 11:29:18;;;;;;;0.93;0.90;;;;;;;;;;5002423;28;20547;-69
2022/06/17 11:31:49;;;;;;;1.90;1.10;;;;;;;;;;5000861;28;20060;-66
2022/06/17 11:34:17;;;;;;;2.38;1.40;;;;;;;;;;4984733;28;20123;-66
2022/06/17 11:37:27;;;;;;;1.63;1.05;;;;;;;;;;4999314;28;20117;-66
2022/06/17 11:40:07;;;;;;;2.13;1.00;;;;;;;;;;4981539;28;20060;-66
2022/06/17 11:42:34;;;;;;;1.13;1.00;;;;;;;;;;5001983;28;20468;-65
2022/06/17 11:45:04;;;;;;;2.10;1.05;;;;;;;;;;4986928;28;20046;-65
2022/06/17 11:47:32;;;;;;;1.55;0.90;;;;;;;;;;4988888;28;20061;-66
2022/06/17 11:50:13;;;;;;;4.47;1.02;;;;;;;;;;5010392;28;20137;-67
2022/06/17 11:52:40;;;;;;;3.08;1.20;;;;;;;;;;4988853;28;20527;-66
2022/06/17 11:55:06;;;;;;;0.95;0.85;;;;;;;;;;5008080;28;20054;-66
2022/06/17 11:57:34;;;;;;;1.38;0.90;;;;;;;;;;5009039;28;20047;-66
2022/06/17 12:00:18;;;;;;;1.35;1.10;;;;;;;;;;5007460;28;20052;-66
2022/06/17 12:02:56;;;;;;;1.33;0.85;;;;;;;;;;5008788;28;20050;-66
2022/06/17 12:05:24;;;;;;;1.38;0.80;;;;;;;;;;5009678;28;20042;-66
2022/06/17 12:07:58;;;;;;;1.38;0.70;;;;;;;;;;5006179;28;20061;-66
2022/06/17 12:10:49;;;;;;;0.65;0.65;;;;;;;;;;5008902;28;20050;-66
2022/06/17 12:13:19;;;;;;;0.82;0.80;;;;;;;;;;5007773;28;20525;-66
2022/06/17 12:15:50;;;;;;;1.67;0.70;;;;;;;;;;5009966;28;20065;-66
2022/06/17 12:18:23;;;;;;;1.23;0.75;;;;;;;;;;5007867;28;20519;-67
2022/06/17 12:21:20;;;;;;;1.08;0.98;;;;;;;;;;5008961;28;20501;-66
2022/06/17 12:24:13;;;;;;;0.73;0.73;;;;;;;;;;5006511;28;20049;-66
2022/06/17 12:26:43;;;;;;;1.85;0.80;;;;;;;;;;4994265;28;20050;-66
2022/06/17 12:29:13;;;;;;;0.75;0.70;;;;;;;;;;5003386;28;20049;-67
2022/06/17 12:31:45;;;;;;;1.05;0.73;;;;;;;;;;4990432;28;20045;-66
2022/06/17 12:34:21;;;;;;;0.75;0.75;;;;;;;;;;5002768;28;20104;-66
2022/06/17 12:37:02;;;;;;;2.45;0.88;;;;;;;;;;4999961;28;20090;-66
2022/06/17 12:39:52;;;;;;;1.33;1.08;;;;;;;;;;5002710;28;20055;-66
2022/06/17 12:42:40;;;;;;;1.13;0.57;;;;;;;;;;5004194;28;20057;-66
2022/06/17 12:45:17;;;;;;;0.65;0.50;;;;;;;;;;5010070;28;20104;-66
2022/06/17 12:47:56;;;;;;;1.42;1.00;;;;;;;;;;5019349;28;20053;-66
2022/06/17 12:54:00;;;;;;;2.60;0.88;;;;;;;;;;5000288;28;20053;-66
2022/06/17 12:56:27;;;;;;;1.83;0.63;;;;;;;;;;5016624;28;20050;-67
2022/06/17 12:59:00;;;;;;;2.55;0.70;;;;;;;;;;5000016;28;20544;-67
2022/06/17 13:01:30;;;;;;;0.55;0.45;;;;;;;;;;4997197;28;20046;-67
2022/06/17 13:04:14;;;;;;;0.73;0.60;;;;;;;;;;5005894;28;20065;-67
2022/06/17 13:07:05;;;;;;;2.28;0.60;;;;;;;;;;5002421;28;20109;-66
2022/06/17 13:09:31;;;;;;;1.42;0.40;;;;;;;;;;5001610;28;20464;-66
2022/06/17 13:12:14;;;;;;;0.60;0.60;;;;;;;;;;5000878;28;20108;-67
2022/06/17 13:15:11;;;;;;;1.00;0.80;;;;;;;;;;5006437;28;20038;-67
2022/06/17 13:17:42;;;;;;;1.27;0.57;;;;;;;;;;5004947;28;20237;-67
2022/06/17 13:20:19;;;;;;;1.13;0.57;;;;;;;;;;5007765;28;20073;-67
2022/06/17 13:22:52;;;;;;;2.53;0.55;;;;;;;;;;5002287;28;20049;-66
2022/06/17 13:25:23;;;;;;;0.95;0.77;;;;;;;;;;4983591;28;20081;-66
2022/06/17 13:28:13;;;;;;;2.20;0.50;;;;;;;;;;4997522;28;20054;-66
2022/06/17 13:30:55;;;;;;;0.80;0.52;;;;;;;;;;4992828;28;20108;-67
2022/06/17 13:33:34;;;;;;;0.70;0.60;;;;;;;;;;5003061;28;20318;-67
2022/06/17 13:36:13;;;;;;;0.55;0.55;;;;;;;;;;4984759;28;20046;-67
2022/06/17 13:38:47;;;;;;;0.73;0.50;;;;;;;;;;5002464;28;20134;-66
2022/06/17 13:41:19;;;;;;;1.70;0.60;;;;;;;;;;5004282;28;20057;-66
2022/06/17 13:43:50;;;;;;;0.47;0.47;;;;;;;;;;4999443;28;20154;-67
2022/06/17 13:46:25;;;;;;;0.65;0.50;;;;;;;;;;4989377;28;20192;-67
2022/06/17 13:49:11;;;;;;;1.00;0.35;;;;;;;;;;5003900;28;20049;-67
2022/06/17 13:52:06;;;;;;;0.55;0.47;;;;;;;;;;5003168;28;20181;-67
2022/06/17 13:54:37;;;;;;;1.98;0.45;;;;;;;;;;5006139;28;20053;-67
2022/06/17 13:57:30;;;;;;;0.35;0.35;;;;;;;;;;5002737;28;20050;-68
2022/06/17 14:00:18;;;;;;;1.35;0.50;;;;;;;;;;5000565;28;20428;-68
2022/06/17 14:03:11;;;;;;;0.50;0.40;;;;;;;;;;5003183;28;20057;-69
2022/06/17 14:05:42;;;;;;;1.42;0.55;;;;;;;;;;5007367;28;20050;-68
2022/06/17 14:08:18;;;;;;;1.13;0.30;;;;;;;;;;5005563;28;20109;-69
2022/06/17 14:10:44;;;;;;;0.40;0.30;;;;;;;;;;5005431;28;20049;-69
2022/06/17 14:13:22;;;;;;;0.50;0.50;;;;;;;;;;5006123;28;20084;-69
2022/06/17 14:15:54;;;;;;;0.63;0.40;;;;;;;;;;5004242;28;20050;-69
2022/06/17 14:18:31;;;;;;;0.45;0.30;;;;;;;;;;5004481;28;20418;-69
2022/06/17 14:21:22;;;;;;;1.15;0.43;;;;;;;;;;5006150;28;20057;-69
2022/06/17 14:23:51;;;;;;;0.45;0.40;;;;;;;;;;4986653;28;20145;-69
2022/06/17 14:26:40;;;;;;;0.35;0.28;;;;;;;;;;4985320;28;20509;-69
2022/06/17 14:29:12;;;;;;;2.88;0.65;;;;;;;;;;5006615;28;20057;-69
2022/06/17 14:31:40;;;;;;;0.47;0.40;;;;;;;;;;5004663;28;20053;-68
2022/06/17 14:34:11;;;;;;;0.40;0.30;;;;;;;;;;5000517;28;20149;-69
2022/06/17 14:36:44;;;;;;;0.65;0.50;;;;;;;;;;5007961;28;20054;-69
2022/06/17 14:39:21;;;;;;;0.50;0.45;;;;;;;;;;5007422;28;20042;-69
2022/06/17 14:42:03;;;;;;;0.30;0.30;;;;;;;;;;5000884;28;20047;-68
2022/06/17 14:44:31;;;;;;;;;;;;;;;;;;4984683;28;20049;-68
2022/06/17 14:47:28;;;;;;;0.90;0.38;;;;;;;;;;4998763;28;19932;-68
2022/06/17 14:50:16;;;;;;;0.65;0.47;;;;;;;;;;5006920;28;20046;-68
2022/06/17 14:52:53;;;;;;;0.50;0.50;;;;;;;;;;5004137;28;20042;-68
2022/06/17 14:55:41;;;;;;;1.02;0.47;;;;;;;;;;5005592;28;20042;-68
2022/06/17 14:58:13;;;;;;;2.33;0.47;;;;;;;;;;5005361;28;20054;-68
2022/06/17 15:00:40;;;;;;;0.40;0.40;;;;;;;;;;5004596;28;20050;-68
2022/06/17 15:03:35;;;;;;;0.50;0.50;;;;;;;;;;5003846;28;20137;-68
2022/06/17 15:06:05;;;;;;;2.45;0.45;;;;;;;;;;5004461;28;20046;-67
2022/06/17 15:08:50;;;;;;;1.05;0.70;;;;;;;;;;4997760;28;20050;-68
2022/06/17 15:11:16;;;;;;;1.40;0.80;;;;;;;;;;4992549;28;20054;-73
2022/06/17 15:14:09;;;;;;;4.85;0.80;;;;;;;;;;5012055;28;20072;-69
2022/06/17 15:16:49;;;;;;;0.63;0.50;;;;;;;;;;4996302;28;20505;-68
2022/06/17 15:19:42;;;;;;;2.55;0.68;;;;;;;;;;4998774;28;20054;-68
2022/06/17 15:22:21;;;;;;;0.70;0.50;;;;;;;;;;5001152;28;20054;-68
2022/06/17 15:25:19;;;;;;;0.98;0.50;;;;;;;;;;5000450;28;20070;-68
2022/06/17 15:28:10;;;;;;;1.35;0.70;;;;;;;;;;5008887;28;20104;-68
2022/06/17 15:30:56;;;;;;;0.55;0.40;;;;;;;;;;5000906;28;20047;-68
2022/06/17 15:33:29;;;;;;;3.10;1.10;;;;;;;;;;5007182;28;20601;-68
2022/06/17 15:36:03;;;;;;;0.65;0.50;;;;;;;;;;5004007;28;20057;-68
2022/06/17 15:38:35;;;;;;;0.60;0.50;;;;;;;;;;5002572;28;20051;-68
2022/06/17 15:41:15;;;;;;;1.00;0.50;;;;;;;;;;5003627;28;20683;-67